createdAt,value
2017-06-08T00:01:40.442Z,10.80
2017-06-08T00:04:09.254Z,12.67
2017-06-08T00:06:37.376Z,11.10
2017-06-08T00:09:05.444Z,11.87
2017-06-08T00:11:33.516Z,12.30
2017-06-08T00:14:01.594Z,11.93
2017-06-08T00:16:29.667Z,11.73
2017-06-08T00:18:57.730Z,10.10
2017-06-08T00:21:26.323Z,10.70
2017-06-08T00:23:54.408Z,10.67
2017-06-08T00:26:23.291Z,9.60
2017-06-08T00:28:51.450Z,9.60
2017-06-08T00:31:19.628Z,9.77
2017-06-08T00:33:47.703Z,8.67
2017-06-08T00:36:15.771Z,9.00
2017-06-08T00:38:43.854Z,8.03
2017-06-08T00:41:11.917Z,9.30
2017-06-08T00:43:39.991Z,10.20
2017-06-08T00:46:08.062Z,9.17
2017-06-08T00:48:36.131Z,9.00
2017-06-08T00:51:04.279Z,9.40
2017-06-08T00:53:32.348Z,9.50
2017-06-08T00:56:00.434Z,12.20
2017-06-08T00:58:28.511Z,10.63
2017-06-08T01:00:56.599Z,11.13
2017-06-08T01:03:24.671Z,12.20
2017-06-08T01:05:52.743Z,12.90
2017-06-08T01:08:20.819Z,10.50
2017-06-08T01:10:48.991Z,11.70
2017-06-08T01:13:17.067Z,10.60
2017-06-08T01:15:45.239Z,10.03
2017-06-08T01:18:13.332Z,9.00
2017-06-08T01:20:42.167Z,9.30
2017-06-08T01:23:10.232Z,9.00
2017-06-08T01:25:38.343Z,8.50
2017-06-08T01:28:06.423Z,9.63
2017-06-08T01:30:34.575Z,9.60
2017-06-08T01:33:03.044Z,9.40
2017-06-08T01:35:31.111Z,9.67
2017-06-08T01:37:59.183Z,11.10
2017-06-08T01:40:27.263Z,8.93
2017-06-08T01:42:55.363Z,11.33
2017-06-08T01:45:23.452Z,11.60
2017-06-08T01:47:51.890Z,10.60
2017-06-08T01:50:19.991Z,13.27
2017-06-08T01:52:48.088Z,10.60
2017-06-08T01:55:17.027Z,10.67
2017-06-08T01:57:45.114Z,12.33
2017-06-08T02:00:13.193Z,12.27
2017-06-08T02:02:41.359Z,10.50
2017-06-08T02:05:09.447Z,10.67
2017-06-08T02:07:37.623Z,9.60
2017-06-08T02:10:05.695Z,9.47
2017-06-08T02:12:33.871Z,8.90
2017-06-08T02:15:01.943Z,10.13
2017-06-08T02:17:30.015Z,9.53
2017-06-08T02:19:58.092Z,9.07
2017-06-08T02:22:26.159Z,10.30
2017-06-08T02:24:54.230Z,9.47
2017-06-08T02:27:22.339Z,10.10
2017-06-08T02:29:51.404Z,10.03
2017-06-08T02:32:19.471Z,9.50
2017-06-08T02:34:47.567Z,10.70
2017-06-08T02:37:16.439Z,10.57
2017-06-08T02:39:44.511Z,12.37
2017-06-08T02:42:12.599Z,11.30
2017-06-08T02:44:41.537Z,12.60
2017-06-08T02:47:09.607Z,11.77
2017-06-08T02:49:38.336Z,12.37
2017-06-08T02:52:06.410Z,13.30
2017-06-08T02:54:34.487Z,13.47
2017-06-08T02:57:02.590Z,12.23
2017-06-08T02:59:30.766Z,14.67
2017-06-08T03:01:58.835Z,15.60
2017-06-08T03:04:26.910Z,14.87
2017-06-08T03:06:54.975Z,13.07
2017-06-08T03:09:23.818Z,15.53
2017-06-08T03:11:51.895Z,13.40
2017-06-08T03:14:19.983Z,14.90
2017-06-08T03:16:48.055Z,15.97
2017-06-08T03:19:16.127Z,15.33
2017-06-08T03:21:44.211Z,14.70
2017-06-08T03:24:12.291Z,14.10
2017-06-08T03:26:41.134Z,15.07
2017-06-08T03:29:09.221Z,13.50
2017-06-08T03:31:37.300Z,14.97
2017-06-08T03:34:05.363Z,14.63
2017-06-08T03:36:33.452Z,13.47
2017-06-08T03:39:01.524Z,14.30
2017-06-08T03:41:29.599Z,13.63
2017-06-08T03:43:57.678Z,15.47
2017-06-08T03:46:25.751Z,13.70
2017-06-08T03:48:53.827Z,13.40
2017-06-08T03:51:22.668Z,12.10
2017-06-08T03:53:50.811Z,13.23
2017-06-08T03:56:18.955Z,11.30
2017-06-08T03:58:47.127Z,11.03
2017-06-08T04:01:15.199Z,11.10
2017-06-08T04:03:43.287Z,10.93
2017-06-08T04:06:11.354Z,10.03
2017-06-08T04:08:39.531Z,10.20
2017-06-08T04:11:07.602Z,11.20
2017-06-08T04:13:36.443Z,10.60
2017-06-08T04:16:04.514Z,8.43
2017-06-08T04:18:32.587Z,9.47
2017-06-08T04:21:00.687Z,7.47
2017-06-08T04:23:28.755Z,8.80
2017-06-08T04:25:56.827Z,8.90
2017-06-08T04:28:25.120Z,8.10
2017-06-08T04:30:53.191Z,8.80
2017-06-08T04:33:21.267Z,7.97
2017-06-08T04:35:49.443Z,8.57
2017-06-08T04:38:17.531Z,6.37
2017-06-08T04:40:46.403Z,8.63
2017-06-08T04:43:14.474Z,7.77
2017-06-08T04:45:42.555Z,8.57
2017-06-08T04:48:10.711Z,8.03
2017-06-08T04:50:38.782Z,8.63
2017-06-08T04:53:06.902Z,8.00
2017-06-08T04:55:35.759Z,7.90
2017-06-08T04:58:03.831Z,8.80
2017-06-08T05:00:31.922Z,8.40
2017-06-08T05:03:00.760Z,8.53
2017-06-08T05:05:28.887Z,9.13
2017-06-08T05:07:56.955Z,8.30
2017-06-08T05:10:25.685Z,9.00
2017-06-08T05:12:53.767Z,7.30
2017-06-08T05:15:21.830Z,9.27
2017-06-08T05:17:49.947Z,8.53
2017-06-08T05:20:18.124Z,8.27
2017-06-08T05:22:46.195Z,9.10
2017-06-08T05:25:14.267Z,7.77
2017-06-08T05:27:42.338Z,10.37
2017-06-08T05:30:10.414Z,11.90
2017-06-08T05:32:38.487Z,10.53
2017-06-08T05:35:06.567Z,12.53
2017-06-08T05:37:34.736Z,10.60
2017-06-08T05:40:02.831Z,13.13
2017-06-08T05:42:31.672Z,11.50
2017-06-08T05:44:59.734Z,11.63
2017-06-08T05:47:27.807Z,12.80
2017-06-08T05:49:55.894Z,11.90
2017-06-08T05:52:23.975Z,12.27
2017-06-08T05:54:52.054Z,13.10
2017-06-08T05:57:20.154Z,13.40
2017-06-08T05:59:49.024Z,13.00
2017-06-08T06:02:17.121Z,12.70
2017-06-08T06:04:45.947Z,12.60
2017-06-08T06:07:14.020Z,13.40
2017-06-08T06:09:42.090Z,12.70
2017-06-08T06:12:10.203Z,13.23
2017-06-08T06:14:38.283Z,12.77
2017-06-08T06:17:06.451Z,11.73
2017-06-08T06:19:34.523Z,13.73
2017-06-08T06:22:02.599Z,12.40
2017-06-08T06:24:30.683Z,12.73
2017-06-08T06:26:59.518Z,11.50
2017-06-08T06:29:27.594Z,13.03
2017-06-08T06:31:55.680Z,12.33
2017-06-08T06:34:23.751Z,10.23
2017-06-08T06:36:51.831Z,10.33
2017-06-08T06:39:19.918Z,9.23
2017-06-08T06:41:47.997Z,9.50
2017-06-08T06:44:16.940Z,10.30
2017-06-08T06:46:45.023Z,9.70
2017-06-08T06:49:13.093Z,8.97
2017-06-08T06:51:41.202Z,7.23
2017-06-08T06:54:09.276Z,8.60
2017-06-08T06:56:37.468Z,7.13
2017-06-08T06:59:06.307Z,5.07
2017-06-08T07:01:34.415Z,6.83
2017-06-08T07:04:02.491Z,6.10
2017-06-08T07:06:30.554Z,7.93
2017-06-08T07:08:58.642Z,13.60
2017-06-08T07:11:26.941Z,15.30
2017-06-08T07:13:55.777Z,13.13
2017-06-08T07:16:23.876Z,12.50
2017-06-08T07:18:51.943Z,9.70
2017-06-08T07:21:20.119Z,11.37
2017-06-08T07:23:48.203Z,9.50
2017-06-08T07:26:16.275Z,10.70
2017-06-08T07:28:44.346Z,11.50
2017-06-08T07:31:12.431Z,12.80
2017-06-08T07:33:41.263Z,10.07
2017-06-08T07:36:09.360Z,12.40
2017-06-08T07:38:37.430Z,8.30
2017-06-08T07:41:05.503Z,10.07
2017-06-08T07:43:33.579Z,9.77
2017-06-08T07:46:01.646Z,9.30
2017-06-08T07:48:29.719Z,9.97
2017-06-08T07:50:57.833Z,9.23
2017-06-08T07:53:26.699Z,7.23
2017-06-08T07:55:54.770Z,6.57
2017-06-08T07:58:22.844Z,7.60
2017-06-08T08:01:08.863Z,7.00
2017-06-08T08:03:37.695Z,7.00
2017-06-08T08:06:05.767Z,6.43
2017-06-08T08:08:33.835Z,6.90
2017-06-08T08:11:01.914Z,6.97
2017-06-08T08:13:29.984Z,7.73
2017-06-08T08:15:58.075Z,7.87
2017-06-08T08:18:26.164Z,7.07
2017-06-08T08:20:54.235Z,7.60
2017-06-08T08:23:22.407Z,7.00
2017-06-08T08:25:50.479Z,7.60
2017-06-08T08:28:18.555Z,8.47
2017-06-08T08:30:46.627Z,7.20
2017-06-08T08:33:14.867Z,8.40
2017-06-08T08:35:42.977Z,8.80
2017-06-08T08:38:11.047Z,11.47
2017-06-08T08:40:39.147Z,10.70
2017-06-08T08:43:07.227Z,10.00
2017-06-08T08:45:36.074Z,12.20
2017-06-08T08:48:04.313Z,12.37
2017-06-08T08:50:32.379Z,11.47
2017-06-08T08:53:00.534Z,8.97
2017-06-08T08:55:29.395Z,9.60
2017-06-08T08:57:57.471Z,9.60
2017-06-08T09:00:25.547Z,11.80
2017-06-08T09:02:53.631Z,15.00
2017-06-08T09:05:21.707Z,15.93
2017-06-08T09:07:50.555Z,13.97
2017-06-08T09:10:18.628Z,12.30
2017-06-08T09:12:46.758Z,12.40
2017-06-08T09:15:14.827Z,12.33
2017-06-08T09:17:43.688Z,10.53
2017-06-08T09:20:11.813Z,9.90
2017-06-08T09:22:39.870Z,7.83
2017-06-08T09:25:08.014Z,8.30
2017-06-08T09:27:36.857Z,9.50
2017-06-08T09:30:04.971Z,8.20
2017-06-08T09:32:33.042Z,7.33
2017-06-08T09:35:01.246Z,8.13
2017-06-08T09:37:30.079Z,9.57
2017-06-08T09:39:58.147Z,7.70
2017-06-08T09:42:26.218Z,9.67
2017-06-08T09:44:54.287Z,8.87
2017-06-08T09:47:22.363Z,10.00
2017-06-08T09:49:50.436Z,10.33
2017-06-08T09:52:18.547Z,11.80
2017-06-08T09:54:46.623Z,10.87
2017-06-08T09:57:14.791Z,13.00
2017-06-08T09:59:42.866Z,12.47
2017-06-08T10:02:10.936Z,14.30
2017-06-08T10:04:39.010Z,12.73
2017-06-08T10:07:07.083Z,13.87
2017-06-08T10:09:35.167Z,15.60
2017-06-08T10:12:04.015Z,14.97
2017-06-08T10:14:32.084Z,13.00
2017-06-08T10:17:00.151Z,14.53
2017-06-08T10:19:28.288Z,13.33
2017-06-08T10:21:57.155Z,13.30
2017-06-08T10:24:25.227Z,12.50
2017-06-08T10:26:53.311Z,8.60
2017-06-08T10:29:21.471Z,9.93
2017-06-08T10:31:49.648Z,8.90
2017-06-08T10:34:17.718Z,8.40
2017-06-08T10:36:45.803Z,9.00
2017-06-08T10:39:14.643Z,8.10
2017-06-08T10:41:42.709Z,8.87
2017-06-08T10:44:10.827Z,7.60
2017-06-08T10:46:38.903Z,8.50
2017-06-08T10:49:07.072Z,7.27
2017-06-08T10:51:35.147Z,7.20
2017-06-08T10:54:03.231Z,7.27
2017-06-08T10:56:32.451Z,6.90
2017-06-08T10:59:00.963Z,6.87
2017-06-08T11:01:29.182Z,8.10
2017-06-08T11:03:57.577Z,8.17
2017-06-08T11:06:26.544Z,7.87
2017-06-08T11:08:54.860Z,7.53
2017-06-08T11:11:23.807Z,8.60
2017-06-08T11:13:52.679Z,8.33
2017-06-08T11:16:21.028Z,9.13
2017-06-08T11:18:49.227Z,9.13
2017-06-08T11:21:17.850Z,7.53
2017-06-08T11:23:46.236Z,8.20
2017-06-08T11:26:14.407Z,8.27
2017-06-08T11:28:42.527Z,8.20
2017-06-08T11:31:10.775Z,8.83
2017-06-08T11:33:39.299Z,8.83
2017-06-08T11:36:07.476Z,8.10
2017-06-08T11:38:36.053Z,8.17
2017-06-08T11:41:04.338Z,7.80
2017-06-08T11:43:32.931Z,9.70
2017-06-08T11:46:01.147Z,8.00
2017-06-08T11:48:29.274Z,7.30
2017-06-08T11:50:58.499Z,7.50
2017-06-08T11:53:27.158Z,7.73
2017-06-08T11:55:55.867Z,8.20
2017-06-08T11:58:24.058Z,10.50
2017-06-08T12:00:52.195Z,8.70
2017-06-08T12:03:20.675Z,8.83
2017-06-08T12:05:48.952Z,8.07
2017-06-08T12:08:17.061Z,8.57
2017-06-08T12:10:45.711Z,6.73
2017-06-08T12:13:13.799Z,6.53
2017-06-08T12:15:41.911Z,6.60
2017-06-08T12:18:10.071Z,7.47
2017-06-08T12:20:38.156Z,7.50
2017-06-08T12:23:06.544Z,8.47
2017-06-08T12:25:35.375Z,8.27
2017-06-08T12:28:03.459Z,8.10
2017-06-08T12:30:31.523Z,7.67
2017-06-08T12:32:59.603Z,8.60
2017-06-08T12:35:27.667Z,7.60
2017-06-08T12:37:55.748Z,8.17
2017-06-08T12:40:23.823Z,8.70
2017-06-08T12:42:51.906Z,8.00
2017-06-08T12:45:20.020Z,6.67
2017-06-08T12:47:48.867Z,8.03
2017-06-08T12:50:16.940Z,6.97
2017-06-08T12:52:45.033Z,7.00
2017-06-08T12:55:13.103Z,6.90
2017-06-08T12:57:41.175Z,7.97
2017-06-08T13:00:09.348Z,7.60
2017-06-08T13:02:37.419Z,7.40
2017-06-08T13:05:05.516Z,8.80
2017-06-08T13:07:34.483Z,8.40
2017-06-08T13:10:02.662Z,7.03
2017-06-08T13:12:30.731Z,8.00
2017-06-08T13:14:58.802Z,7.97
2017-06-08T13:17:26.879Z,9.60
2017-06-08T13:19:54.968Z,11.73
2017-06-08T13:22:23.803Z,9.80
2017-06-08T13:24:51.880Z,13.20
2017-06-08T13:27:19.988Z,14.80
2017-06-08T13:29:48.066Z,9.30
2017-06-08T13:32:16.235Z,9.53
2017-06-08T13:34:44.306Z,16.13
2017-06-08T13:37:12.383Z,17.60
2017-06-08T13:39:40.450Z,13.60
2017-06-08T13:42:08.527Z,14.53
2017-06-08T13:44:36.596Z,15.07
2017-06-08T13:47:04.706Z,9.00
2017-06-08T13:49:32.842Z,9.73
2017-06-08T13:52:00.915Z,8.53
2017-06-08T13:54:29.003Z,9.50
2017-06-08T13:56:57.076Z,10.00
2017-06-08T13:59:25.238Z,10.30
2017-06-08T14:01:53.314Z,11.37
2017-06-08T14:04:21.391Z,15.13
2017-06-08T14:06:49.454Z,14.77
2017-06-08T14:09:17.542Z,13.40
2017-06-08T14:11:46.380Z,11.37
2017-06-08T14:14:14.527Z,12.47
2017-06-08T14:16:42.602Z,15.10
2017-06-08T14:19:10.735Z,10.90
2017-06-08T14:21:38.818Z,13.07
2017-06-08T14:24:06.983Z,14.90
2017-06-08T14:26:35.118Z,13.93
2017-06-08T14:29:03.232Z,12.07
2017-06-08T14:31:31.407Z,11.70
2017-06-08T14:33:59.475Z,9.83
2017-06-08T14:36:27.572Z,11.20
2017-06-08T14:38:55.800Z,10.87
2017-06-08T14:41:23.898Z,9.63
2017-06-08T14:43:51.987Z,10.67
2017-06-08T14:46:20.579Z,12.43
2017-06-08T14:48:49.431Z,10.77
2017-06-08T14:51:17.524Z,10.03
2017-06-08T14:53:45.603Z,11.10
2017-06-08T14:56:13.663Z,11.73
2017-06-08T14:58:41.743Z,13.63
2017-06-08T15:01:09.815Z,14.17
2017-06-08T15:03:38.000Z,12.70
2017-06-08T15:06:06.155Z,10.87
2017-06-08T15:08:34.231Z,12.20
2017-06-08T15:11:02.306Z,11.80
2017-06-08T15:13:30.374Z,15.43
2017-06-08T15:15:58.458Z,15.47
2017-06-08T15:18:26.522Z,15.00
2017-06-08T15:20:54.695Z,14.90
2017-06-08T15:23:22.767Z,14.40
2017-06-08T15:25:50.876Z,13.90
2017-06-08T15:28:19.589Z,12.73
2017-06-08T15:30:47.699Z,13.80
2017-06-08T15:33:15.788Z,14.30
2017-06-08T15:35:43.952Z,13.17
2017-06-08T15:38:12.022Z,13.83
2017-06-08T15:40:40.156Z,14.47
2017-06-08T15:43:08.267Z,12.40
2017-06-08T15:45:36.356Z,13.47
2017-06-08T15:48:04.443Z,12.63
2017-06-08T15:50:32.586Z,14.43
2017-06-08T15:53:00.663Z,13.90
2017-06-08T15:55:28.742Z,12.10
2017-06-08T15:57:56.907Z,15.13
2017-06-08T16:00:24.978Z,13.17
2017-06-08T16:02:53.051Z,11.60
2017-06-08T16:05:21.531Z,14.03
2017-06-08T16:07:49.612Z,14.60
2017-06-08T16:10:17.711Z,13.40
2017-06-08T16:12:45.855Z,12.53
2017-06-08T16:15:13.939Z,10.97
2017-06-08T16:17:42.102Z,12.90
2017-06-08T16:20:10.483Z,13.30
2017-06-08T16:22:39.471Z,12.57
2017-06-08T16:25:07.544Z,13.40
2017-06-08T16:27:35.632Z,13.30
2017-06-08T16:30:03.703Z,14.20
2017-06-08T16:32:31.776Z,12.03
2017-06-08T16:35:00.655Z,11.33
2017-06-08T16:37:28.740Z,14.57
2017-06-08T16:39:56.856Z,18.53
2017-06-08T16:42:24.956Z,14.70
2017-06-08T16:44:53.019Z,15.50
2017-06-08T16:47:21.104Z,12.10
2017-06-08T16:49:49.198Z,15.40
2017-06-08T16:52:17.442Z,11.83
2017-06-08T16:54:45.539Z,13.70
2017-06-08T16:57:13.611Z,19.83
2017-06-08T16:59:41.706Z,17.27
2017-06-08T17:02:10.535Z,21.13
2017-06-08T17:04:38.611Z,22.80
2017-06-08T17:07:06.724Z,20.03
2017-06-08T17:09:34.795Z,16.17
2017-06-08T17:12:02.875Z,16.17
2017-06-08T17:14:30.943Z,14.53
2017-06-08T17:16:59.039Z,13.23
2017-06-08T17:19:27.186Z,17.17
2017-06-08T17:21:55.283Z,13.70
2017-06-08T17:24:24.116Z,16.90
2017-06-08T17:26:52.183Z,15.93
2017-06-08T17:29:20.259Z,17.37
2017-06-08T17:31:48.331Z,17.17
2017-06-08T17:34:16.407Z,16.77
2017-06-08T17:36:44.533Z,17.63
2017-06-08T17:39:13.383Z,15.20
2017-06-08T17:41:41.459Z,14.17
2017-06-08T17:44:09.828Z,16.63
2017-06-08T17:46:37.903Z,17.40
2017-06-08T17:49:05.971Z,22.47
2017-06-08T17:52:05.024Z,19.10
2017-06-08T17:54:33.887Z,14.03
2017-06-08T17:57:01.960Z,10.30
2017-06-08T17:59:30.048Z,9.40
2017-06-08T18:01:58.896Z,12.77
2017-06-08T18:04:27.006Z,14.13
2017-06-08T18:06:55.098Z,12.70
2017-06-08T18:09:24.227Z,10.43
2017-06-08T18:11:52.319Z,10.67
2017-06-08T18:14:20.391Z,10.17
2017-06-08T18:16:48.471Z,10.80
2017-06-08T18:19:16.543Z,11.23
2017-06-08T18:21:44.623Z,11.40
2017-06-08T18:24:12.704Z,11.73
2017-06-08T18:26:40.791Z,11.13
2017-06-08T18:29:09.631Z,10.00
2017-06-08T18:31:37.715Z,10.57
2017-06-08T18:34:05.921Z,18.10
2017-06-08T18:36:33.999Z,18.30
2017-06-08T18:39:02.073Z,17.40
2017-06-08T18:41:30.915Z,19.87
2017-06-08T18:43:58.995Z,18.30
2017-06-08T18:46:27.084Z,18.20
2017-06-08T18:48:55.167Z,22.10
2017-06-08T18:51:23.243Z,21.83
2017-06-08T18:53:51.323Z,22.20
2017-06-08T18:56:19.486Z,22.43
2017-06-08T18:58:47.562Z,23.00
2017-06-08T19:01:15.907Z,21.53
2017-06-08T19:03:43.979Z,20.87
2017-06-08T19:06:12.083Z,22.93
2017-06-08T19:08:40.155Z,21.37
2017-06-08T19:11:08.243Z,22.30
2017-06-08T19:13:36.330Z,23.50
2017-06-08T19:16:04.411Z,23.03
2017-06-08T19:18:32.548Z,24.63
2017-06-08T19:21:01.451Z,22.37
2017-06-08T19:23:29.587Z,22.63
2017-06-08T19:25:57.658Z,22.83
2017-06-08T19:28:25.742Z,22.30
2017-06-08T19:30:53.815Z,19.73
2017-06-08T19:33:21.907Z,22.13
2017-06-08T19:35:49.979Z,21.47
2017-06-08T19:38:18.050Z,21.73
2017-06-08T19:40:46.134Z,20.70
2017-06-08T19:43:14.989Z,19.53
2017-06-08T19:45:43.076Z,21.50
2017-06-08T19:48:11.139Z,19.83
2017-06-08T19:50:39.227Z,21.73
2017-06-08T19:53:07.390Z,20.53
2017-06-08T19:55:35.471Z,21.80
2017-06-08T19:58:03.547Z,21.20
2017-06-08T20:00:31.927Z,19.63
2017-06-08T20:03:00.067Z,21.50
2017-06-08T20:05:28.149Z,23.13
2017-06-08T20:07:56.247Z,25.77
2017-06-08T20:10:24.320Z,22.47
2017-06-08T20:12:52.423Z,23.27
2017-06-08T20:15:21.260Z,23.77
2017-06-08T20:17:49.384Z,20.83
2017-06-08T20:20:18.214Z,21.73
2017-06-08T20:22:46.322Z,23.50
2017-06-08T20:25:14.395Z,22.60
2017-06-08T20:27:42.463Z,21.60
2017-06-08T20:30:10.590Z,22.30
2017-06-08T20:32:39.478Z,23.33
2017-06-08T20:35:07.772Z,18.80
2017-06-08T20:37:35.844Z,25.00
2017-06-08T20:40:03.943Z,22.63
2017-06-08T20:42:32.008Z,24.93
2017-06-08T20:45:00.079Z,24.73
2017-06-08T20:47:28.272Z,25.03
2017-06-08T20:49:56.343Z,27.00
2017-06-08T20:52:24.423Z,25.07
2017-06-08T20:54:52.487Z,23.30
2017-06-08T20:57:20.571Z,27.37
2017-06-08T20:59:48.635Z,29.43
2017-06-08T21:02:16.726Z,26.57
2017-06-08T21:04:45.571Z,25.07
2017-06-08T21:07:13.640Z,31.53
2017-06-08T21:09:41.715Z,30.20
2017-06-08T21:12:09.815Z,36.20
2017-06-08T21:14:37.900Z,28.90
2017-06-08T21:17:06.743Z,28.40
2017-06-08T21:19:34.840Z,28.87
2017-06-08T21:22:02.907Z,28.77
2017-06-08T21:24:30.984Z,27.73
2017-06-08T21:26:59.167Z,22.93
2017-06-08T21:29:27.239Z,24.23
2017-06-08T21:31:55.324Z,22.13
2017-06-08T21:34:23.395Z,23.93
2017-06-08T21:36:51.467Z,24.73
2017-06-08T21:39:19.543Z,22.80
2017-06-08T21:41:47.614Z,24.43
2017-06-08T21:44:16.455Z,20.43
2017-06-08T21:46:44.523Z,24.23
2017-06-08T21:49:12.631Z,26.13
2017-06-08T21:51:40.694Z,25.03
2017-06-08T21:54:08.819Z,22.20
2017-06-08T21:56:36.891Z,25.67
2017-06-08T21:59:04.963Z,24.57
2017-06-08T22:01:33.039Z,21.23
2017-06-08T22:04:02.113Z,21.13
2017-06-08T22:06:30.947Z,23.03
2017-06-08T22:08:59.018Z,21.60
2017-06-08T22:11:27.108Z,24.10
2017-06-08T22:13:55.191Z,25.43
2017-06-08T22:16:23.269Z,25.73
2017-06-08T22:18:51.353Z,26.03
2017-06-08T22:21:19.427Z,28.10
2017-06-08T22:23:47.497Z,28.90
2017-06-08T22:26:15.599Z,30.43
2017-06-08T22:28:43.670Z,29.10
2017-06-08T22:31:12.508Z,27.23
2017-06-08T22:33:40.587Z,24.83
2017-06-08T22:36:08.660Z,29.47
2017-06-08T22:38:36.731Z,29.50
2017-06-08T22:41:04.802Z,25.00
2017-06-08T22:43:32.995Z,21.93
2017-06-08T22:46:01.082Z,22.77
2017-06-08T22:48:29.952Z,18.73
2017-06-08T22:50:58.015Z,20.40
2017-06-08T22:53:26.087Z,18.73
2017-06-08T22:55:54.163Z,17.83
2017-06-08T22:58:22.235Z,18.60
2017-06-08T23:00:50.427Z,16.90
2017-06-08T23:03:18.495Z,17.90
2017-06-08T23:05:46.602Z,19.67
2017-06-08T23:08:14.676Z,18.73
2017-06-08T23:10:43.540Z,14.90
2017-06-08T23:13:11.667Z,17.00
2017-06-08T23:15:39.740Z,17.43
2017-06-08T23:18:07.819Z,16.80
2017-06-08T23:20:35.884Z,13.37
2017-06-08T23:23:03.976Z,13.73
2017-06-08T23:25:32.039Z,12.37
2017-06-08T23:28:00.139Z,13.47
2017-06-08T23:30:28.212Z,12.60
2017-06-08T23:32:56.283Z,11.03
2017-06-08T23:35:24.889Z,11.63
2017-06-08T23:37:52.955Z,12.73
2017-06-08T23:40:21.031Z,10.83
2017-06-08T23:42:49.867Z,9.97
2017-06-08T23:45:17.999Z,9.60
2017-06-08T23:47:46.848Z,8.63
2017-06-08T23:50:14.943Z,9.33
2017-06-08T23:52:43.010Z,9.73
2017-06-08T23:55:11.086Z,8.97
2017-06-08T23:57:39.183Z,9.80
